createdAt,value
2019-02-23T00:00:14.599Z,1.30
2019-02-23T00:02:49.072Z,1.20
2019-02-23T00:05:22.580Z,1.10
2019-02-23T00:07:56.909Z,1.00
2019-02-23T00:10:32.769Z,1.00
2019-02-23T00:13:07.992Z,1.00
2019-02-23T00:15:42.622Z,1.00
2019-02-23T00:18:25.012Z,0.90
2019-02-23T00:20:58.223Z,0.90
2019-02-23T00:23:30.152Z,0.80
2019-02-23T00:26:03.038Z,0.90
2019-02-23T00:28:37.324Z,0.90
2019-02-23T00:31:09.174Z,0.80
2019-02-23T00:33:42.408Z,0.90
2019-02-23T00:36:15.338Z,0.90
2019-02-23T00:38:47.259Z,0.90
2019-02-23T00:41:20.287Z,0.90
2019-02-23T00:43:54.738Z,0.90
2019-02-23T00:46:28.258Z,0.80
2019-02-23T00:49:00.192Z,0.70
2019-02-23T00:51:33.106Z,0.70
2019-02-23T00:54:05.004Z,0.70
2019-02-23T00:56:39.324Z,0.70
2019-02-23T00:59:12.242Z,0.70
2019-02-23T01:01:45.369Z,0.70
2019-02-23T01:04:18.223Z,0.60
2019-02-23T01:06:57.939Z,0.60
2019-02-23T01:09:41.970Z,0.60
2019-02-23T01:12:16.516Z,0.60
2019-02-23T01:14:48.166Z,0.60
2019-02-23T01:17:19.967Z,0.70
2019-02-23T01:19:54.002Z,0.70
2019-02-23T01:22:26.900Z,0.60
2019-02-23T01:25:00.002Z,0.50
2019-02-23T01:27:33.055Z,0.50
2019-02-23T01:30:06.954Z,0.40
2019-02-23T01:32:38.811Z,0.40
2019-02-23T01:35:11.742Z,0.40
2019-02-23T01:37:45.980Z,0.40
2019-02-23T01:40:18.996Z,0.40
2019-02-23T01:42:50.863Z,0.30
2019-02-23T01:45:23.778Z,0.30
2019-02-23T01:47:56.654Z,0.30
2019-02-23T01:50:30.853Z,0.20
2019-02-23T01:53:05.886Z,0.20
2019-02-23T01:55:37.781Z,0.20
2019-02-23T01:58:09.656Z,0.10
2019-02-23T02:00:42.656Z,0.10
2019-02-23T02:03:16.056Z,0.00
2019-02-23T02:05:49.041Z,0.00
2019-02-23T02:08:22.382Z,-0.10
2019-02-23T02:10:55.532Z,-0.10
2019-02-23T02:13:29.417Z,-0.30
2019-02-23T02:16:02.694Z,-0.40
2019-02-23T02:18:37.023Z,-0.60
2019-02-23T02:21:12.812Z,-0.70
2019-02-23T02:23:48.518Z,-0.80
2019-02-23T02:26:20.434Z,-0.80
2019-02-23T02:28:53.466Z,-0.90
2019-02-23T02:31:25.382Z,-1.00
2019-02-23T02:34:14.613Z,-1.00
2019-02-23T02:36:46.782Z,-1.00
2019-02-23T02:39:18.644Z,-1.10
2019-02-23T02:41:50.502Z,-1.20
2019-02-23T02:44:22.431Z,-1.10
2019-02-23T02:46:54.347Z,-1.00
2019-02-23T02:49:26.152Z,-1.10
2019-02-23T02:51:58.015Z,-1.10
2019-02-23T02:54:32.265Z,-1.10
2019-02-23T02:57:04.158Z,-1.10
2019-02-23T02:59:38.763Z,-0.90
2019-02-23T03:02:11.637Z,-0.90
2019-02-23T03:04:45.107Z,-1.00
2019-02-23T03:07:17.985Z,-1.00
2019-02-23T03:09:50.898Z,-1.10
2019-02-23T03:12:24.788Z,-1.20
2019-02-23T03:14:56.674Z,-1.20
2019-02-23T03:17:29.739Z,-1.20
2019-02-23T03:20:01.832Z,-1.20
2019-02-23T03:22:37.128Z,-1.10
2019-02-23T03:25:10.059Z,-1.20
2019-02-23T03:27:43.227Z,-1.20
2019-02-23T03:30:16.528Z,-1.20
2019-02-23T03:32:52.332Z,-1.20
2019-02-23T03:35:27.103Z,-1.10
2019-02-23T03:38:00.267Z,-1.10
2019-02-23T03:40:34.467Z,-1.00
2019-02-23T03:43:07.767Z,-1.00
2019-02-23T03:45:42.451Z,-1.00
2019-02-23T03:48:16.959Z,-1.10
2019-02-23T03:50:51.238Z,-1.10
2019-02-23T03:53:25.812Z,-1.10
2019-02-23T03:55:59.296Z,-1.20
2019-02-23T03:58:31.250Z,-1.30
2019-02-23T04:01:04.535Z,-1.30
2019-02-23T04:03:38.780Z,-1.30
2019-02-23T04:06:10.659Z,-1.40
2019-02-23T04:08:45.588Z,-1.40
2019-02-23T04:11:18.735Z,-1.40
2019-02-23T04:13:52.778Z,-1.50
2019-02-23T04:16:24.676Z,-1.50
2019-02-23T04:18:57.887Z,-1.60
2019-02-23T04:21:29.846Z,-1.60
2019-02-23T04:24:01.992Z,-1.60
2019-02-23T04:26:36.485Z,-1.70
2019-02-23T04:29:08.367Z,-1.70
2019-02-23T04:31:41.580Z,-1.70
2019-02-23T04:34:14.969Z,-1.80
2019-02-23T04:36:48.371Z,-1.80
2019-02-23T04:39:21.599Z,-1.90
2019-02-23T04:41:53.478Z,-1.90
2019-02-23T04:44:25.416Z,-1.80
2019-02-23T04:46:57.339Z,-1.80
2019-02-23T04:49:31.680Z,-1.70
2019-02-23T04:52:05.784Z,-1.70
2019-02-23T04:54:41.900Z,-1.70
2019-02-23T04:57:13.721Z,-1.70
2019-02-23T04:59:53.429Z,-1.70
2019-02-23T05:02:25.419Z,-1.70
2019-02-23T05:04:58.623Z,-1.80
2019-02-23T05:07:31.748Z,-1.80
2019-02-23T05:10:04.615Z,-1.70
2019-02-23T05:12:38.879Z,-1.80
2019-02-23T05:15:14.301Z,-1.80
2019-02-23T05:17:47.442Z,-1.80
2019-02-23T05:20:20.259Z,-1.80
2019-02-23T05:22:52.211Z,-1.80
2019-02-23T05:25:25.480Z,-1.80
2019-02-23T05:27:58.327Z,-1.90
2019-02-23T05:30:30.393Z,-1.90
2019-02-23T05:33:06.063Z,-1.90
2019-02-23T05:35:39.972Z,-1.80
2019-02-23T05:38:11.985Z,-1.80
2019-02-23T05:40:46.089Z,-1.80
2019-02-23T05:43:19.254Z,-1.70
2019-02-23T05:45:52.771Z,-1.70
2019-02-23T05:48:28.488Z,-1.80
2019-02-23T05:51:00.334Z,-1.80
2019-02-23T05:53:34.970Z,-1.80
2019-02-23T05:56:12.781Z,-2.00
2019-02-23T05:58:45.233Z,-2.00
2019-02-23T06:01:19.986Z,-2.10
2019-02-23T06:03:53.179Z,-2.10
2019-02-23T06:06:26.312Z,-2.20
2019-02-23T06:08:59.215Z,-2.20
2019-02-23T06:11:32.624Z,-2.20
2019-02-23T06:14:05.513Z,-2.30
2019-02-23T06:16:38.368Z,-2.30
2019-02-23T06:19:12.831Z,-2.20
2019-02-23T06:21:53.694Z,-2.20
2019-02-23T06:24:19.272Z,-2.20
2019-02-23T06:26:52.422Z,-2.10
2019-02-23T06:29:24.293Z,-2.20
2019-02-23T06:31:57.150Z,-2.10
2019-02-23T06:34:31.271Z,-2.10
2019-02-23T06:37:06.804Z,-2.00
2019-02-23T06:39:39.874Z,-1.90
2019-02-23T06:42:12.823Z,-1.80
2019-02-23T06:44:51.752Z,-1.80
2019-02-23T06:47:26.201Z,-1.70
2019-02-23T06:49:59.335Z,-1.70
2019-02-23T06:52:31.478Z,-1.60
2019-02-23T06:55:03.441Z,-1.50
2019-02-23T06:57:39.347Z,-1.50
2019-02-23T07:00:13.519Z,-1.40
2019-02-23T07:02:47.637Z,-1.30
2019-02-23T07:05:22.158Z,-1.20
2019-02-23T07:07:55.369Z,-1.10
2019-02-23T07:10:30.201Z,-1.10
2019-02-23T07:13:02.250Z,-0.90
2019-02-23T07:15:35.435Z,-0.80
2019-02-23T07:18:07.750Z,-0.70
2019-02-23T07:20:44.326Z,-0.60
2019-02-23T07:23:14.123Z,-0.50
2019-02-23T07:25:48.074Z,-0.40
2019-02-23T07:28:21.456Z,-0.30
2019-02-23T07:30:54.517Z,-0.10
2019-02-23T07:33:32.680Z,0.00
2019-02-23T07:36:00.557Z,0.10
2019-02-23T07:38:35.491Z,0.30
2019-02-23T07:41:07.537Z,0.50
2019-02-23T07:43:40.740Z,0.60
2019-02-23T07:46:13.963Z,0.70
2019-02-23T07:48:46.156Z,0.80
2019-02-23T07:51:19.800Z,1.10
2019-02-23T07:53:52.068Z,1.30
2019-02-23T07:56:26.933Z,1.50
2019-02-23T07:58:59.352Z,1.70
2019-02-23T08:01:31.949Z,1.90
2019-02-23T08:04:04.938Z,2.10
2019-02-23T08:06:39.158Z,2.20
2019-02-23T08:09:12.211Z,2.20
2019-02-23T08:11:44.615Z,2.30
2019-02-23T08:14:16.852Z,2.40
2019-02-23T08:16:56.556Z,2.60
2019-02-23T08:19:28.824Z,2.70
2019-02-23T08:22:01.069Z,2.80
2019-02-23T08:24:33.009Z,3.00
2019-02-23T08:27:05.110Z,3.00
2019-02-23T08:29:37.092Z,3.10
2019-02-23T08:32:10.740Z,3.20
2019-02-23T08:34:42.904Z,3.20
2019-02-23T08:37:15.099Z,3.10
2019-02-23T08:39:47.547Z,3.20
2019-02-23T08:42:20.686Z,3.20
2019-02-23T08:44:52.611Z,3.20
2019-02-23T08:47:24.528Z,3.20
2019-02-23T08:49:56.786Z,3.20
2019-02-23T08:52:29.766Z,3.20
2019-02-23T08:55:03.283Z,3.30
2019-02-23T08:57:36.333Z,3.40
2019-02-23T09:00:12.341Z,3.40
2019-02-23T09:02:45.758Z,3.50
2019-02-23T09:05:18.480Z,3.50
2019-02-23T09:07:52.107Z,3.60
2019-02-23T09:10:26.575Z,3.70
2019-02-23T09:12:58.725Z,3.70
2019-02-23T09:15:31.102Z,3.80
2019-02-23T09:18:03.056Z,3.90
2019-02-23T09:20:35.340Z,3.90
2019-02-23T09:23:08.835Z,4.10
2019-02-23T09:25:40.849Z,4.20
2019-02-23T09:28:14.153Z,4.40
2019-02-23T09:30:47.115Z,4.50
2019-02-23T09:33:19.120Z,4.50
2019-02-23T09:35:51.382Z,4.60
2019-02-23T09:38:23.482Z,4.80
2019-02-23T09:40:55.666Z,4.90
2019-02-23T09:43:28.946Z,5.00
2019-02-23T09:46:00.834Z,5.00
2019-02-23T09:48:33.251Z,4.80
2019-02-23T09:51:06.587Z,4.80
2019-02-23T09:53:40.408Z,4.90
2019-02-23T09:56:13.789Z,5.00
2019-02-23T09:58:48.137Z,5.10
2019-02-23T10:01:20.227Z,5.30
2019-02-23T10:03:52.291Z,5.40
2019-02-23T10:06:24.326Z,5.40
2019-02-23T10:08:56.503Z,5.50
2019-02-23T10:11:28.662Z,5.60
2019-02-23T10:14:00.730Z,5.70
2019-02-23T10:16:32.819Z,5.80
2019-02-23T10:19:06.223Z,5.80
2019-02-23T10:21:39.658Z,5.90
2019-02-23T10:24:12.988Z,6.10
2019-02-23T10:26:45.026Z,6.30
2019-02-23T10:29:17.392Z,6.50
2019-02-23T10:31:49.523Z,6.80
2019-02-23T10:34:21.696Z,7.00
2019-02-23T10:36:53.746Z,7.20
2019-02-23T10:39:26.063Z,7.30
2019-02-23T10:41:58.328Z,7.50
2019-02-23T10:44:31.401Z,7.60
2019-02-23T10:47:03.533Z,7.70
2019-02-23T10:49:35.719Z,7.70
2019-02-23T10:52:07.968Z,7.80
2019-02-23T10:54:41.503Z,7.90
2019-02-23T10:57:14.728Z,8.10
2019-02-23T10:59:48.433Z,8.20
2019-02-23T11:02:21.706Z,8.30
2019-02-23T11:04:54.877Z,8.50
2019-02-23T11:07:27.234Z,8.60
2019-02-23T11:10:01.875Z,8.70
2019-02-23T11:12:35.295Z,8.70
2019-02-23T11:15:09.573Z,8.60
2019-02-23T11:17:41.722Z,8.20
2019-02-23T11:20:14.651Z,8.10
2019-02-23T11:22:47.780Z,8.00
2019-02-23T11:25:19.707Z,8.10
2019-02-23T11:27:51.854Z,8.30
2019-02-23T11:30:26.468Z,8.50
2019-02-23T11:32:59.940Z,8.70
2019-02-23T11:35:32.228Z,9.00
2019-02-23T11:38:05.866Z,9.20
2019-02-23T11:40:37.907Z,9.30
2019-02-23T11:43:09.848Z,9.60
2019-02-23T11:45:41.920Z,9.70
2019-02-23T11:48:14.142Z,9.70
2019-02-23T11:50:46.323Z,9.70
2019-02-23T11:53:18.374Z,9.70
2019-02-23T11:55:51.611Z,9.70
2019-02-23T11:58:25.004Z,9.60
2019-02-23T12:00:58.211Z,9.70
2019-02-23T12:03:31.043Z,9.80
2019-02-23T12:06:03.014Z,9.90
2019-02-23T12:08:36.346Z,10.10
2019-02-23T12:11:08.462Z,10.00
2019-02-23T12:13:41.777Z,10.10
2019-02-23T12:16:14.133Z,10.20
2019-02-23T12:18:46.185Z,10.10
2019-02-23T12:21:18.293Z,10.20
2019-02-23T12:23:50.531Z,10.20
2019-02-23T12:26:22.938Z,10.40
2019-02-23T12:28:55.883Z,10.40
2019-02-23T12:31:28.083Z,10.30
2019-02-23T12:34:00.226Z,10.40
2019-02-23T12:36:33.891Z,10.50
2019-02-23T12:39:06.700Z,10.50
2019-02-23T12:41:40.357Z,10.60
2019-02-23T12:44:12.483Z,10.80
2019-02-23T12:46:44.507Z,10.70
2019-02-23T12:49:16.989Z,10.60
2019-02-23T12:51:50.399Z,10.60
2019-02-23T12:54:23.020Z,10.70
2019-02-23T12:56:56.239Z,10.90
2019-02-23T12:59:28.376Z,11.10
2019-02-23T13:02:00.876Z,11.30
2019-02-23T13:04:33.049Z,11.50
2019-02-23T13:07:04.999Z,11.60
2019-02-23T13:09:41.715Z,11.50
2019-02-23T13:13:03.496Z,11.40
2019-02-23T13:15:45.809Z,11.40
2019-02-23T13:18:55.843Z,11.30
2019-02-23T13:21:56.527Z,11.30
2019-02-23T13:25:09.087Z,11.30
2019-02-23T13:28:14.286Z,11.30
2019-02-23T13:31:24.263Z,11.20
2019-02-23T13:34:34.106Z,10.90
2019-02-23T13:37:23.081Z,11.10
2019-02-23T13:40:05.781Z,11.10
2019-02-23T13:43:21.085Z,11.40
2019-02-23T13:46:16.537Z,11.50
2019-02-23T13:49:15.079Z,11.40
2019-02-23T13:52:15.372Z,11.10
2019-02-23T13:55:29.358Z,10.80
2019-02-23T13:58:25.939Z,10.50
2019-02-23T14:01:40.436Z,10.30
2019-02-23T14:05:08.945Z,9.90
2019-02-23T14:08:29.655Z,9.80
2019-02-23T14:11:32.092Z,9.80
2019-02-23T14:14:45.485Z,9.70
2019-02-23T14:17:46.829Z,9.90
2019-02-23T14:20:47.059Z,10.20
2019-02-23T14:24:18.392Z,10.40
2019-02-23T14:27:36.090Z,10.60
2019-02-23T14:31:03.250Z,10.50
2019-02-23T14:33:52.310Z,10.50
2019-02-23T14:36:43.999Z,10.50
2019-02-23T14:40:13.922Z,10.50
2019-02-23T14:43:58.702Z,10.60
2019-02-23T14:47:24.056Z,10.70
2019-02-23T14:50:35.524Z,10.80
2019-02-23T14:53:51.919Z,10.70
2019-02-23T14:57:14.933Z,10.60
2019-02-23T15:00:42.982Z,10.50
2019-02-23T15:04:04.687Z,10.40
2019-02-23T15:07:20.337Z,10.20
2019-02-23T15:10:31.197Z,10.10
2019-02-23T15:13:32.181Z,10.00
2019-02-23T15:17:00.257Z,9.90
2019-02-23T15:20:06.012Z,9.70
2019-02-23T15:23:28.355Z,9.60
2019-02-23T15:26:32.458Z,9.40
2019-02-23T15:29:29.464Z,9.30
2019-02-23T15:32:40.947Z,9.20
2019-02-23T15:35:28.031Z,9.10
2019-02-23T15:38:26.608Z,9.00
2019-02-23T15:41:45.515Z,8.90
2019-02-23T15:45:14.086Z,8.80
2019-02-23T15:48:38.925Z,8.60
2019-02-23T15:51:11.222Z,8.40
2019-02-23T15:53:46.098Z,8.20
2019-02-23T15:56:18.316Z,8.20
2019-02-23T15:58:52.132Z,8.10
2019-02-23T16:01:25.359Z,8.00
2019-02-23T16:03:59.120Z,7.90
2019-02-23T16:06:31.769Z,7.80
2019-02-23T16:09:06.471Z,7.70
2019-02-23T16:11:39.712Z,7.60
2019-02-23T16:14:12.858Z,7.50
2019-02-23T16:16:47.420Z,7.40
2019-02-23T16:19:20.676Z,7.30
2019-02-23T16:21:53.151Z,7.10
2019-02-23T16:24:26.088Z,7.00
2019-02-23T16:26:58.337Z,6.90
2019-02-23T16:29:38.704Z,6.70
2019-02-23T16:32:07.969Z,6.70
2019-02-23T16:34:41.807Z,6.50
2019-02-23T16:37:14.058Z,6.50
2019-02-23T16:39:46.255Z,6.40
2019-02-23T16:42:22.128Z,6.30
2019-02-23T16:44:54.134Z,6.20
2019-02-23T16:47:26.213Z,6.10
2019-02-23T16:49:58.199Z,6.00
2019-02-23T16:52:31.310Z,5.90
2019-02-23T16:55:04.421Z,5.80
2019-02-23T16:57:36.635Z,5.70
2019-02-23T17:00:09.350Z,5.70
2019-02-23T17:02:44.434Z,5.60
2019-02-23T17:05:16.735Z,5.50
2019-02-23T17:07:48.759Z,5.40
2019-02-23T17:10:21.041Z,5.30
2019-02-23T17:12:53.175Z,5.30
2019-02-23T17:15:26.461Z,5.30
2019-02-23T17:17:58.888Z,5.30
2019-02-23T17:20:31.063Z,5.30
2019-02-23T17:23:03.394Z,5.20
2019-02-23T17:25:36.410Z,5.10
2019-02-23T17:28:09.912Z,5.10
2019-02-23T17:30:42.490Z,5.00
2019-02-23T17:33:18.913Z,5.00
2019-02-23T17:35:51.125Z,5.00
2019-02-23T17:38:23.203Z,4.90
2019-02-23T17:40:57.739Z,4.80
2019-02-23T17:43:29.924Z,4.80
2019-02-23T17:46:04.293Z,4.70
2019-02-23T17:48:36.896Z,4.70
2019-02-23T17:51:09.369Z,4.60
2019-02-23T17:53:42.833Z,4.50
2019-02-23T17:56:16.033Z,4.50
2019-02-23T17:58:49.490Z,4.40
2019-02-23T18:01:21.614Z,4.40
2019-02-23T18:03:53.922Z,4.30
2019-02-23T18:06:28.026Z,4.20
2019-02-23T18:09:01.250Z,4.20
2019-02-23T18:11:35.105Z,4.00
2019-02-23T18:14:09.346Z,3.90
2019-02-23T18:16:41.563Z,4.00
2019-02-23T18:19:14.883Z,4.00
2019-02-23T18:21:46.911Z,4.00
2019-02-23T18:24:18.796Z,3.90
2019-02-23T18:26:53.661Z,3.80
2019-02-23T18:29:26.446Z,3.70
2019-02-23T18:31:59.032Z,3.40
2019-02-23T18:34:32.126Z,3.30
2019-02-23T18:37:06.726Z,3.20
2019-02-23T18:39:38.630Z,3.00
2019-02-23T18:42:12.423Z,2.90
2019-02-23T18:44:44.370Z,2.80
2019-02-23T18:47:17.645Z,2.80
2019-02-23T18:49:49.691Z,2.70
2019-02-23T18:52:21.755Z,2.70
2019-02-23T18:54:54.831Z,2.60
2019-02-23T18:57:27.975Z,2.60
2019-02-23T19:00:00.272Z,2.50
2019-02-23T19:02:34.705Z,2.50
2019-02-23T19:05:08.656Z,2.40
2019-02-23T19:07:42.530Z,2.40
2019-02-23T19:10:14.636Z,2.30
2019-02-23T19:12:48.043Z,2.30
2019-02-23T19:15:19.549Z,2.20
2019-02-23T19:17:51.430Z,2.10
2019-02-23T19:20:23.314Z,2.00
2019-02-23T19:22:55.442Z,2.00
2019-02-23T19:25:27.329Z,1.90
2019-02-23T19:27:59.338Z,1.80
2019-02-23T19:30:32.237Z,1.70
2019-02-23T19:33:04.151Z,1.60
2019-02-23T19:35:36.069Z,1.50
2019-02-23T19:38:07.938Z,1.40
2019-02-23T19:40:39.824Z,1.30
2019-02-23T19:43:12.691Z,1.20
2019-02-23T19:45:44.585Z,1.20
2019-02-23T19:48:16.492Z,1.20
2019-02-23T19:50:52.030Z,1.10
2019-02-23T19:53:23.965Z,1.10
2019-02-23T19:55:55.831Z,1.10
2019-02-23T19:58:27.712Z,1.10
2019-02-23T20:00:59.643Z,1.10
2019-02-23T20:03:31.489Z,1.20
2019-02-23T20:06:03.391Z,1.20
2019-02-23T20:08:35.253Z,1.20
2019-02-23T20:11:07.129Z,1.20
2019-02-23T20:13:39.091Z,1.10
2019-02-23T20:16:11.004Z,1.00
2019-02-23T20:18:42.906Z,1.00
2019-02-23T20:21:14.864Z,0.90
2019-02-23T20:23:48.016Z,0.80
2019-02-23T20:26:20.004Z,0.70
2019-02-23T20:28:51.949Z,0.70
2019-02-23T20:31:23.871Z,0.60
2019-02-23T20:33:55.739Z,0.60
2019-02-23T20:36:27.578Z,0.60
2019-02-23T20:38:59.485Z,0.60
2019-02-23T20:41:32.903Z,0.50
2019-02-23T20:44:04.814Z,0.50
2019-02-23T20:46:36.740Z,0.40
2019-02-23T20:49:08.654Z,0.30
2019-02-23T20:51:40.565Z,0.30
2019-02-23T20:54:12.475Z,0.30
2019-02-23T20:56:44.268Z,0.30
2019-02-23T20:59:16.140Z,0.20
2019-02-23T21:01:48.069Z,0.10
2019-02-23T21:04:20.958Z,0.00
2019-02-23T21:06:52.840Z,0.00
2019-02-23T21:09:26.407Z,-0.10
2019-02-23T21:11:58.467Z,-0.10
2019-02-23T21:14:30.555Z,-0.10
2019-02-23T21:17:02.389Z,-0.10
2019-02-23T21:19:34.308Z,-0.10
2019-02-23T21:22:06.209Z,0.00
2019-02-23T21:24:38.140Z,-0.10
2019-02-23T21:27:13.013Z,-0.10
2019-02-23T21:29:43.507Z,-0.10
2019-02-23T21:32:15.362Z,0.00
2019-02-23T21:34:47.255Z,0.00
2019-02-23T21:37:22.110Z,0.00
2019-02-23T21:39:53.989Z,0.10
2019-02-23T21:42:25.858Z,0.00
2019-02-23T21:44:58.015Z,0.00
2019-02-23T21:47:29.941Z,-0.10
2019-02-23T21:50:01.843Z,-0.10
2019-02-23T21:52:36.049Z,0.10
2019-02-23T21:55:09.244Z,0.10
2019-02-23T21:57:41.168Z,0.20
2019-02-23T22:00:13.065Z,0.10
2019-02-23T22:02:45.199Z,0.00
2019-02-23T22:05:17.075Z,-0.10
2019-02-23T22:07:49.987Z,-0.20
2019-02-23T22:10:21.858Z,-0.40
2019-02-23T22:12:53.784Z,-0.30
2019-02-23T22:15:25.710Z,-0.40
2019-02-23T22:17:57.623Z,-0.40
2019-02-23T22:20:30.483Z,-0.30
2019-02-23T22:23:03.407Z,-0.30
2019-02-23T22:25:35.247Z,-0.30
2019-02-23T22:28:08.119Z,-0.30
2019-02-23T22:30:40.075Z,-0.40
2019-02-23T22:33:13.165Z,-0.40
2019-02-23T22:35:45.096Z,-0.50
2019-02-23T22:38:16.875Z,-0.50
2019-02-23T22:40:48.791Z,-0.60
2019-02-23T22:43:20.672Z,-0.50
2019-02-23T22:45:52.584Z,-0.50
2019-02-23T22:48:24.492Z,-0.60
2019-02-23T22:50:56.291Z,-0.60
2019-02-23T22:53:28.149Z,-0.70
2019-02-23T22:56:00.001Z,-0.70
2019-02-23T22:58:32.972Z,-0.70
2019-02-23T23:01:07.319Z,-0.80
2019-02-23T23:03:40.740Z,-0.80
2019-02-23T23:06:12.627Z,-0.80
2019-02-23T23:08:45.559Z,-0.80
2019-02-23T23:11:17.484Z,-0.80
2019-02-23T23:13:49.385Z,-0.90
2019-02-23T23:16:22.603Z,-0.90
2019-02-23T23:18:55.479Z,-1.00
2019-02-23T23:21:27.597Z,-1.00
2019-02-23T23:23:59.498Z,-1.10
2019-02-23T23:26:34.967Z,-1.10
2019-02-23T23:29:07.867Z,-1.10
2019-02-23T23:31:45.097Z,-1.10
2019-02-23T23:34:18.307Z,-1.10
2019-02-23T23:36:51.379Z,-1.20
2019-02-23T23:39:23.383Z,-1.10
2019-02-23T23:41:58.138Z,-1.20
2019-02-23T23:44:30.223Z,-1.20
2019-02-23T23:47:03.179Z,-1.20
2019-02-23T23:49:37.629Z,-1.20
2019-02-23T23:52:09.614Z,-1.10
2019-02-23T23:54:41.436Z,-1.20
2019-02-23T23:57:13.327Z,-1.20
2019-02-23T23:59:45.214Z,-1.20
